sensor_id;sensor_type;location;lat;lon;timestamp;pressure;altitude;pressure_sealevel;temperature;humidity
6938;BME280;40040;42.706;23.372;2024-02-21T00:00:33;145767.13;;;6.44;100.00
6938;BME280;40040;42.706;23.372;2024-02-21T00:03:00;145744.97;;;6.35;100.00
6938;BME280;40040;42.706;23.372;2024-02-21T00:05:27;145676.13;;;6.07;100.00
6938;BME280;40040;42.706;23.372;2024-02-21T00:07:54;145756.03;;;6.40;100.00
6938;BME280;40040;42.706;23.372;2024-02-21T00:10:22;145764.63;;;6.43;100.00
6938;BME280;40040;42.706;23.372;2024-02-21T00:12:50;145757.28;;;6.40;100.00
6938;BME280;40040;42.706;23.372;2024-02-21T00:15:17;145775.72;;;6.48;100.00
6938;BME280;40040;42.706;23.372;2024-02-21T00:17:44;145769.56;;;6.45;100.00
6938;BME280;40040;42.706;23.372;2024-02-21T00:20:11;145780.66;;;6.50;100.00
6938;BME280;40040;42.706;23.372;2024-02-21T00:22:38;145715.47;;;6.23;100.00
6938;BME280;40040;42.706;23.372;2024-02-21T00:25:05;145752.34;;;6.38;100.00
6938;BME280;40040;42.706;23.372;2024-02-21T00:27:33;145742.53;;;6.34;100.00
6938;BME280;40040;42.706;23.372;2024-02-21T00:30:00;145709.31;;;6.21;100.00
6938;BME280;40040;42.706;23.372;2024-02-21T00:32:27;145737.63;;;6.32;100.00
6938;BME280;40040;42.706;23.372;2024-02-21T00:34:54;145726.53;;;6.28;100.00
6938;BME280;40040;42.706;23.372;2024-02-21T00:37:20;145738.88;;;6.33;100.00
6938;BME280;40040;42.706;23.372;2024-02-21T00:39:47;145730.25;;;6.29;100.00
6938;BME280;40040;42.706;23.372;2024-02-21T00:42:14;145721.66;;;6.26;100.00
6938;BME280;40040;42.706;23.372;2024-02-21T00:44:42;145670.00;;;6.05;100.00
6938;BME280;40040;42.706;23.372;2024-02-21T00:47:10;145703.19;;;6.18;100.00
6938;BME280;40040;42.706;23.372;2024-02-21T00:49:36;145713.03;;;6.22;100.00
6938;BME280;40040;42.706;23.372;2024-02-21T00:52:03;145678.63;;;6.08;100.00
6938;BME280;40040;42.706;23.372;2024-02-21T00:54:30;145710.56;;;6.21;100.00
6938;BME280;40040;42.706;23.372;2024-02-21T00:56:56;145731.44;;;6.30;100.00
6938;BME280;40040;42.706;23.372;2024-02-21T00:59:23;145668.78;;;6.04;100.00
6938;BME280;40040;42.706;23.372;2024-02-21T01:01:51;145713.03;;;6.22;100.00
6938;BME280;40040;42.706;23.372;2024-02-21T01:04:18;145722.84;;;6.26;100.00
6938;BME280;40040;42.706;23.372;2024-02-21T01:06:45;145720.41;;;6.25;100.00
6938;BME280;40040;42.706;23.372;2024-02-21T01:09:12;145729.00;;;6.29;100.00
6938;BME280;40040;42.706;23.372;2024-02-21T01:11:39;145660.16;;;6.01;100.00
6938;BME280;40040;42.706;23.372;2024-02-21T01:14:06;145735.13;;;6.31;100.00
6938;BME280;40040;42.706;23.372;2024-02-21T01:16:33;145735.13;;;6.31;100.00
6938;BME280;40040;42.706;23.372;2024-02-21T01:19:02;145738.88;;;6.33;100.00
6938;BME280;40040;42.706;23.372;2024-02-21T01:21:28;145749.91;;;6.37;100.00
6938;BME280;40040;42.706;23.372;2024-02-21T01:23:55;145705.63;;;6.19;100.00
6938;BME280;40040;42.706;23.372;2024-02-21T01:26:22;145740.06;;;6.33;100.00
6938;BME280;40040;42.706;23.372;2024-02-21T01:28:49;145720.41;;;6.25;100.00
6938;BME280;40040;42.706;23.372;2024-02-21T01:31:16;145724.09;;;6.27;100.00
6938;BME280;40040;42.706;23.372;2024-02-21T01:33:43;145733.94;;;6.31;100.00
6938;BME280;40040;42.706;23.372;2024-02-21T01:36:11;145727.78;;;6.28;100.00
6938;BME280;40040;42.706;23.372;2024-02-21T01:38:38;145724.09;;;6.27;100.00
6938;BME280;40040;42.706;23.372;2024-02-21T01:41:05;145695.81;;;6.15;100.00
6938;BME280;40040;42.706;23.372;2024-02-21T01:43:32;145741.31;;;6.34;100.00
6938;BME280;40040;42.706;23.372;2024-02-21T01:45:59;145741.31;;;6.34;100.00
6938;BME280;40040;42.706;23.372;2024-02-21T01:48:26;145754.84;;;6.39;100.00
6938;BME280;40040;42.706;23.372;2024-02-21T01:50:54;145743.75;;;6.35;100.00
6938;BME280;40040;42.706;23.372;2024-02-21T01:53:25;145685.97;;;6.11;100.00
6938;BME280;40040;42.706;23.372;2024-02-21T01:55:54;145735.13;;;6.31;100.00
6938;BME280;40040;42.706;23.372;2024-02-21T01:58:21;145732.69;;;6.30;100.00
6938;BME280;40040;42.706;23.372;2024-02-21T02:00:48;145704.44;;;6.19;100.00
6938;BME280;40040;42.706;23.372;2024-02-21T02:03:16;145741.31;;;6.34;100.00
6938;BME280;40040;42.706;23.372;2024-02-21T02:05:44;145752.34;;;6.38;100.00
6938;BME280;40040;42.706;23.372;2024-02-21T02:08:12;145747.41;;;6.36;100.00
6938;BME280;40040;42.706;23.372;2024-02-21T02:10:40;145748.66;;;6.37;100.00
6938;BME280;40040;42.706;23.372;2024-02-21T02:13:07;145727.78;;;6.28;100.00
6938;BME280;40040;42.706;23.372;2024-02-21T02:15:38;145681.06;;;6.09;100.00
6938;BME280;40040;42.706;23.372;2024-02-21T02:18:05;145744.97;;;6.35;100.00
6938;BME280;40040;42.706;23.372;2024-02-21T02:20:32;145744.97;;;6.35;100.00
6938;BME280;40040;42.706;23.372;2024-02-21T02:22:59;145742.53;;;6.34;100.00
6938;BME280;40040;42.706;23.372;2024-02-21T02:25:28;145725.31;;;6.27;100.00
6938;BME280;40040;42.706;23.372;2024-02-21T02:27:55;145735.13;;;6.31;100.00
6938;BME280;40040;42.706;23.372;2024-02-21T02:30:22;145732.69;;;6.30;100.00
6938;BME280;40040;42.706;23.372;2024-02-21T02:32:48;145742.53;;;6.34;100.00
6938;BME280;40040;42.706;23.372;2024-02-21T02:35:15;145732.69;;;6.30;100.00
6938;BME280;40040;42.706;23.372;2024-02-21T02:37:48;145732.69;;;6.30;100.00
6938;BME280;40040;42.706;23.372;2024-02-21T02:40:15;145724.09;;;6.27;100.00
6938;BME280;40040;42.706;23.372;2024-02-21T02:42:43;145725.31;;;6.27;100.00
6938;BME280;40040;42.706;23.372;2024-02-21T02:45:10;145713.03;;;6.22;100.00
6938;BME280;40040;42.706;23.372;2024-02-21T02:47:37;145710.56;;;6.21;100.00
6938;BME280;40040;42.706;23.372;2024-02-21T02:50:04;145688.41;;;6.12;100.00
6938;BME280;40040;42.706;23.372;2024-02-21T02:52:31;145709.31;;;6.21;100.00
6938;BME280;40040;42.706;23.372;2024-02-21T02:54:58;145720.41;;;6.25;100.00
6938;BME280;40040;42.706;23.372;2024-02-21T02:57:25;145676.13;;;6.07;100.00
6938;BME280;40040;42.706;23.372;2024-02-21T02:59:53;145732.69;;;6.30;100.00
6938;BME280;40040;42.706;23.372;2024-02-21T03:02:19;145717.91;;;6.24;100.00
6938;BME280;40040;42.706;23.372;2024-02-21T03:04:46;145736.38;;;6.32;100.00
6938;BME280;40040;42.706;23.372;2024-02-21T03:07:14;145732.69;;;6.30;100.00
6938;BME280;40040;42.706;23.372;2024-02-21T03:09:41;145730.25;;;6.29;100.00
6938;BME280;40040;42.706;23.372;2024-02-21T03:12:09;145705.63;;;6.19;100.00
6938;BME280;40040;42.706;23.372;2024-02-21T03:14:35;145692.09;;;6.14;100.00
6938;BME280;40040;42.706;23.372;2024-02-21T03:17:03;145690.91;;;6.13;100.00
6938;BME280;40040;42.706;23.372;2024-02-21T03:19:31;145693.34;;;6.14;100.00
6938;BME280;40040;42.706;23.372;2024-02-21T03:21:58;145703.19;;;6.18;100.00
6938;BME280;40040;42.706;23.372;2024-02-21T03:24:25;145708.13;;;6.20;100.00
6938;BME280;40040;42.706;23.372;2024-02-21T03:26:51;145720.41;;;6.25;100.00
6938;BME280;40040;42.706;23.372;2024-02-21T03:29:18;145721.66;;;6.26;100.00
6938;BME280;40040;42.706;23.372;2024-02-21T03:31:45;145708.13;;;6.20;100.00
6938;BME280;40040;42.706;23.372;2024-02-21T03:34:13;145688.41;;;6.12;100.00
6938;BME280;40040;42.706;23.372;2024-02-21T03:36:40;145725.31;;;6.27;100.00
6938;BME280;40040;42.706;23.372;2024-02-21T03:39:07;145732.69;;;6.30;100.00
6938;BME280;40040;42.706;23.372;2024-02-21T03:41:34;145676.13;;;6.07;100.00
6938;BME280;40040;42.706;23.372;2024-02-21T03:44:01;145727.78;;;6.28;100.00
6938;BME280;40040;42.706;23.372;2024-02-21T03:46:28;145719.16;;;6.25;100.00
6938;BME280;40040;42.706;23.372;2024-02-21T03:48:54;145658.91;;;6.00;100.00
6938;BME280;40040;42.706;23.372;2024-02-21T03:51:22;145727.78;;;6.28;100.00
6938;BME280;40040;42.706;23.372;2024-02-21T03:53:49;145710.56;;;6.21;100.00
6938;BME280;40040;42.706;23.372;2024-02-21T03:56:16;145710.56;;;6.21;100.00
6938;BME280;40040;42.706;23.372;2024-02-21T03:58:43;145700.69;;;6.17;100.00
6938;BME280;40040;42.706;23.372;2024-02-21T04:01:09;145727.78;;;6.28;100.00
6938;BME280;40040;42.706;23.372;2024-02-21T04:03:36;145725.31;;;6.27;100.00
6938;BME280;40040;42.706;23.372;2024-02-21T04:06:03;145729.00;;;6.29;100.00
6938;BME280;40040;42.706;23.372;2024-02-21T04:08:31;145727.78;;;6.28;100.00
6938;BME280;40040;42.706;23.372;2024-02-21T04:10:58;145716.72;;;6.24;100.00
6938;BME280;40040;42.706;23.372;2024-02-21T04:13:25;145731.44;;;6.30;100.00
6938;BME280;40040;42.706;23.372;2024-02-21T04:15:52;145693.34;;;6.14;100.00
6938;BME280;40040;42.706;23.372;2024-02-21T04:18:19;145710.56;;;6.21;100.00
6938;BME280;40040;42.706;23.372;2024-02-21T04:20:46;145682.31;;;6.10;100.00
6938;BME280;40040;42.706;23.372;2024-02-21T04:23:13;145737.63;;;6.32;100.00
6938;BME280;40040;42.706;23.372;2024-02-21T04:25:42;145735.13;;;6.31;100.00
6938;BME280;40040;42.706;23.372;2024-02-21T04:28:08;145722.84;;;6.26;100.00
6938;BME280;40040;42.706;23.372;2024-02-21T04:30:35;145708.13;;;6.20;100.00
6938;BME280;40040;42.706;23.372;2024-02-21T04:33:02;145701.94;;;6.18;100.00
6938;BME280;40040;42.706;23.372;2024-02-21T04:35:29;145698.25;;;6.16;100.00
6938;BME280;40040;42.706;23.372;2024-02-21T04:37:56;145704.44;;;6.19;100.00
6938;BME280;40040;42.706;23.372;2024-02-21T04:40:22;145695.81;;;6.15;100.00
6938;BME280;40040;42.706;23.372;2024-02-21T04:42:50;145695.81;;;6.15;100.00
6938;BME280;40040;42.706;23.372;2024-02-21T04:45:17;145644.19;;;5.94;100.00
6938;BME280;40040;42.706;23.372;2024-02-21T04:47:44;145683.50;;;6.10;100.00
6938;BME280;40040;42.706;23.372;2024-02-21T04:50:11;145693.34;;;6.14;100.00
6938;BME280;40040;42.706;23.372;2024-02-21T04:52:38;145679.81;;;6.09;100.00
6938;BME280;40040;42.706;23.372;2024-02-21T04:55:05;145673.69;;;6.06;100.00
6938;BME280;40040;42.706;23.372;2024-02-21T04:57:32;145688.41;;;6.12;100.00
6938;BME280;40040;42.706;23.372;2024-02-21T05:00:01;145705.63;;;6.19;100.00
6938;BME280;40040;42.706;23.372;2024-02-21T05:02:29;145703.19;;;6.18;100.00
6938;BME280;40040;42.706;23.372;2024-02-21T05:04:55;145678.63;;;6.08;100.00
6938;BME280;40040;42.706;23.372;2024-02-21T05:07:22;145698.25;;;6.16;100.00
6938;BME280;40040;42.706;23.372;2024-02-21T05:09:49;145631.91;;;5.89;100.00
6938;BME280;40040;42.706;23.372;2024-02-21T05:12:15;145633.09;;;5.90;100.00
6938;BME280;40040;42.706;23.372;2024-02-21T05:14:42;145612.16;;;5.81;100.00
6938;BME280;40040;42.706;23.372;2024-02-21T05:17:10;145601.13;;;5.77;100.00
6938;BME280;40040;42.706;23.372;2024-02-21T05:19:37;145590.03;;;5.72;100.00
6938;BME280;40040;42.706;23.372;2024-02-21T05:22:04;145572.84;;;5.65;100.00
6938;BME280;40040;42.706;23.372;2024-02-21T05:24:30;145575.31;;;5.66;100.00
6938;BME280;40040;42.706;23.372;2024-02-21T05:26:57;145566.72;;;5.62;100.00
6938;BME280;40040;42.706;23.372;2024-02-21T05:29:24;145558.13;;;5.59;100.00
6938;BME280;40040;42.706;23.372;2024-02-21T05:31:57;145521.28;;;5.44;100.00
6938;BME280;40040;42.706;23.372;2024-02-21T05:34:26;145547.03;;;5.54;100.00
6938;BME280;40040;42.706;23.372;2024-02-21T05:36:53;145501.59;;;5.36;100.00
6938;BME280;40040;42.706;23.372;2024-02-21T05:39:20;145523.72;;;5.45;100.00
6938;BME280;40040;42.706;23.372;2024-02-21T05:41:48;145479.47;;;5.27;100.00
6938;BME280;40040;42.706;23.372;2024-02-21T05:44:15;145521.28;;;5.44;100.00
6938;BME280;40040;42.706;23.372;2024-02-21T05:46:42;145526.16;;;5.46;100.00
6938;BME280;40040;42.706;23.372;2024-02-21T05:49:09;145497.91;;;5.34;100.00
6938;BME280;40040;42.706;23.372;2024-02-21T05:51:37;145535.97;;;5.50;100.00
6938;BME280;40040;42.706;23.372;2024-02-21T05:54:04;145528.63;;;5.47;100.00
6938;BME280;40040;42.706;23.372;2024-02-21T05:56:30;145558.13;;;5.59;100.00
6938;BME280;40040;42.706;23.372;2024-02-21T05:58:57;145569.16;;;5.63;100.00
6938;BME280;40040;42.706;23.372;2024-02-21T06:01:24;145534.75;;;5.49;100.00
6938;BME280;40040;42.706;23.372;2024-02-21T06:03:51;145575.31;;;5.66;100.00
6938;BME280;40040;42.706;23.372;2024-02-21T06:06:17;145571.63;;;5.64;100.00
6938;BME280;40040;42.706;23.372;2024-02-21T06:08:45;145551.94;;;5.56;100.00
6938;BME280;40040;42.706;23.372;2024-02-21T06:11:12;145567.97;;;5.63;100.00
6938;BME280;40040;42.706;23.372;2024-02-21T06:13:40;145601.13;;;5.77;100.00
6938;BME280;40040;42.706;23.372;2024-02-21T06:16:07;145614.66;;;5.82;100.00
6938;BME280;40040;42.706;23.372;2024-02-21T06:18:35;145628.19;;;5.88;100.00
6938;BME280;40040;42.706;23.372;2024-02-21T06:21:03;145622.06;;;5.85;100.00
6938;BME280;40040;42.706;23.372;2024-02-21T06:23:30;145613.41;;;5.82;100.00
6938;BME280;40040;42.706;23.372;2024-02-21T06:25:58;145634.34;;;5.90;100.00
6938;BME280;40040;42.706;23.372;2024-02-21T06:28:25;145673.69;;;6.06;100.00
6938;BME280;40040;42.706;23.372;2024-02-21T06:30:52;145651.56;;;5.97;100.00
6938;BME280;40040;42.706;23.372;2024-02-21T06:33:19;145689.66;;;6.13;100.00
6938;BME280;40040;42.706;23.372;2024-02-21T06:35:50;145700.69;;;6.17;100.00
6938;BME280;40040;42.706;23.372;2024-02-21T06:38:18;145708.13;;;6.20;100.00
6938;BME280;40040;42.706;23.372;2024-02-21T06:40:45;145711.78;;;6.22;100.00
6938;BME280;40040;42.706;23.372;2024-02-21T06:43:17;145731.44;;;6.30;100.00
6938;BME280;40040;42.706;23.372;2024-02-21T06:45:45;145759.75;;;6.41;100.00
6938;BME280;40040;42.706;23.372;2024-02-21T06:48:16;145800.31;;;6.58;100.00
6938;BME280;40040;42.706;23.372;2024-02-21T06:50:43;145826.16;;;6.68;100.00
6938;BME280;40040;42.706;23.372;2024-02-21T06:53:10;145853.22;;;6.79;100.00
6938;BME280;40040;42.706;23.372;2024-02-21T06:55:37;145880.25;;;6.91;100.00
6938;BME280;40040;42.706;23.372;2024-02-21T06:58:04;145858.16;;;6.81;100.00
6938;BME280;40040;42.706;23.372;2024-02-21T07:00:35;145839.69;;;6.74;100.00
6938;BME280;40040;42.706;23.372;2024-02-21T07:03:02;145912.25;;;7.04;100.00
6938;BME280;40040;42.706;23.372;2024-02-21T07:05:29;145944.22;;;7.17;100.00
6938;BME280;40040;42.706;23.372;2024-02-21T07:07:55;145941.78;;;7.16;100.00
6938;BME280;40040;42.706;23.372;2024-02-21T07:10:22;145986.09;;;7.34;100.00
6938;BME280;40040;42.706;23.372;2024-02-21T07:12:49;145998.38;;;7.39;100.00
6938;BME280;40040;42.706;23.372;2024-02-21T07:15:17;146004.53;;;7.41;100.00
6938;BME280;40040;42.706;23.372;2024-02-21T07:17:45;146013.13;;;7.45;100.00
6938;BME280;40040;42.706;23.372;2024-02-21T07:20:12;145934.41;;;7.13;100.00
6938;BME280;40040;42.706;23.372;2024-02-21T07:22:39;146037.78;;;7.55;100.00
6938;BME280;40040;42.706;23.372;2024-02-21T07:25:07;146040.22;;;7.56;100.00
6938;BME280;40040;42.706;23.372;2024-02-21T07:27:33;146042.66;;;7.57;100.00
6938;BME280;40040;42.706;23.372;2024-02-21T07:30:00;146063.59;;;7.65;100.00
6938;BME280;40040;42.706;23.372;2024-02-21T07:32:27;146093.16;;;7.77;100.00
6938;BME280;40040;42.706;23.372;2024-02-21T07:34:55;146118.97;;;7.88;100.00
6938;BME280;40040;42.706;23.372;2024-02-21T07:37:22;146103.00;;;7.81;100.00
6938;BME280;40040;42.706;23.372;2024-02-21T07:39:49;146155.94;;;8.03;100.00
6938;BME280;40040;42.706;23.372;2024-02-21T07:42:15;146136.22;;;7.95;100.00
6938;BME280;40040;42.706;23.372;2024-02-21T07:44:42;146189.19;;;8.17;100.00
6938;BME280;40040;42.706;23.372;2024-02-21T07:47:09;146212.66;;;8.26;100.00
6938;BME280;40040;42.706;23.372;2024-02-21T07:49:41;146239.72;;;8.37;100.00
6938;BME280;40040;42.706;23.372;2024-02-21T07:52:09;146255.75;;;8.44;100.00
6938;BME280;40040;42.706;23.372;2024-02-21T07:54:36;146256.94;;;8.44;100.00
6938;BME280;40040;42.706;23.372;2024-02-21T07:57:03;146256.94;;;8.44;100.00
6938;BME280;40040;42.706;23.372;2024-02-21T07:59:30;146287.75;;;8.57;100.00
6938;BME280;40040;42.706;23.372;2024-02-21T08:01:57;146316.06;;;8.68;100.00
6938;BME280;40040;42.706;23.372;2024-02-21T08:04:24;146321.00;;;8.70;100.00
6938;BME280;40040;42.706;23.372;2024-02-21T08:06:52;146234.78;;;8.35;100.00
6938;BME280;40040;42.706;23.372;2024-02-21T08:09:22;146297.63;;;8.61;100.00
6938;BME280;40040;42.706;23.372;2024-02-21T08:11:49;146284.06;;;8.55;100.00
6938;BME280;40040;42.706;23.372;2024-02-21T08:14:17;146307.44;;;8.65;100.00
6938;BME280;40040;42.706;23.372;2024-02-21T08:16:44;146330.88;;;8.74;100.00
6938;BME280;40040;42.706;23.372;2024-02-21T08:19:11;146333.31;;;8.75;100.00
6938;BME280;40040;42.706;23.372;2024-02-21T08:21:37;146356.75;;;8.85;100.00
6938;BME280;40040;42.706;23.372;2024-02-21T08:24:04;146390.00;;;8.98;100.00
6938;BME280;40040;42.706;23.372;2024-02-21T08:26:32;146394.94;;;9.00;100.00
6938;BME280;40040;42.706;23.372;2024-02-21T08:28:59;146380.13;;;8.94;100.00
6938;BME280;40040;42.706;23.372;2024-02-21T08:31:26;146424.50;;;9.13;100.00
6938;BME280;40040;42.706;23.372;2024-02-21T08:33:56;146459.03;;;9.27;100.00
6938;BME280;40040;42.706;23.372;2024-02-21T08:36:28;146465.19;;;9.29;100.00
6938;BME280;40040;42.706;23.372;2024-02-21T08:38:54;146525.56;;;9.54;100.00
6938;BME280;40040;42.706;23.372;2024-02-21T08:41:21;146557.63;;;9.67;100.00
6938;BME280;40040;42.706;23.372;2024-02-21T08:43:51;146569.97;;;9.72;100.00
6938;BME280;40040;42.706;23.372;2024-02-21T08:46:18;146571.22;;;9.72;100.00
6938;BME280;40040;42.706;23.372;2024-02-21T08:48:44;146582.28;;;9.77;100.00
6938;BME280;40040;42.706;23.372;2024-02-21T08:51:12;146540.38;;;9.60;100.00
6938;BME280;40040;42.706;23.372;2024-02-21T08:53:39;146544.06;;;9.61;100.00
6938;BME280;40040;42.706;23.372;2024-02-21T08:56:06;146562.56;;;9.69;100.00
6938;BME280;40040;42.706;23.372;2024-02-21T08:58:34;146571.22;;;9.72;100.00
6938;BME280;40040;42.706;23.372;2024-02-21T09:01:03;146545.31;;;9.62;100.00
6938;BME280;40040;42.706;23.372;2024-02-21T09:03:31;146573.66;;;9.73;100.00
6938;BME280;40040;42.706;23.372;2024-02-21T09:05:58;146572.41;;;9.73;100.00
6938;BME280;40040;42.706;23.372;2024-02-21T09:08:25;146613.13;;;9.89;100.00
6938;BME280;40040;42.706;23.372;2024-02-21T09:10:52;146568.72;;;9.71;100.00
6938;BME280;40040;42.706;23.372;2024-02-21T09:13:19;146609.44;;;9.88;100.00
6938;BME280;40040;42.706;23.372;2024-02-21T09:15:47;146587.22;;;9.79;100.00
6938;BME280;40040;42.706;23.372;2024-02-21T09:18:15;146604.47;;;9.86;100.00
6938;BME280;40040;42.706;23.372;2024-02-21T09:20:43;146606.94;;;9.87;100.00
6938;BME280;40040;42.706;23.372;2024-02-21T09:23:09;146615.56;;;9.90;100.00
6938;BME280;40040;42.706;23.372;2024-02-21T09:25:36;146646.41;;;10.03;100.00
6938;BME280;40040;42.706;23.372;2024-02-21T09:28:03;146621.75;;;9.93;100.00
6938;BME280;40040;42.706;23.372;2024-02-21T09:30:31;146662.47;;;10.09;100.00
6938;BME280;40040;42.706;23.372;2024-02-21T09:32:58;146703.19;;;10.26;100.00
6938;BME280;40040;42.706;23.372;2024-02-21T09:35:28;146661.28;;;10.09;100.00
6938;BME280;40040;42.706;23.372;2024-02-21T09:37:55;146658.72;;;10.08;100.00
6938;BME280;40040;42.706;23.372;2024-02-21T09:40:22;146614.38;;;9.90;100.00
6938;BME280;40040;42.706;23.372;2024-02-21T09:43:00;146609.44;;;9.88;100.00
6938;BME280;40040;42.706;23.372;2024-02-21T09:45:29;146636.53;;;9.99;100.00
6938;BME280;40040;42.706;23.372;2024-02-21T09:50:51;146621.75;;;9.93;99.62
6938;BME280;40040;42.706;23.372;2024-02-21T09:53:19;146646.41;;;10.03;100.00
6938;BME280;40040;42.706;23.372;2024-02-21T09:55:47;146673.59;;;10.14;100.00
6938;BME280;40040;42.706;23.372;2024-02-21T09:58:15;146683.47;;;10.18;100.00
6938;BME280;40040;42.706;23.372;2024-02-21T10:00:42;146745.13;;;10.43;98.27
6938;BME280;40040;42.706;23.372;2024-02-21T10:03:09;146697.00;;;10.23;97.56
6938;BME280;40040;42.706;23.372;2024-02-21T10:05:36;146794.50;;;10.63;100.00
6938;BME280;40040;42.706;23.372;2024-02-21T10:08:05;146804.34;;;10.67;96.36
6938;BME280;40040;42.706;23.372;2024-02-21T10:10:41;146814.22;;;10.71;96.41
6938;BME280;40040;42.706;23.372;2024-02-21T10:13:10;146785.84;;;10.60;94.44
6938;BME280;40040;42.706;23.372;2024-02-21T10:15:37;146793.25;;;10.63;93.27
6938;BME280;40040;42.706;23.372;2024-02-21T10:18:04;146747.63;;;10.44;92.71
6938;BME280;40040;42.706;23.372;2024-02-21T10:20:32;146833.94;;;10.79;93.17
6938;BME280;40040;42.706;23.372;2024-02-21T10:23:04;146903.06;;;11.07;94.21
6938;BME280;40040;42.706;23.372;2024-02-21T10:25:34;146914.19;;;11.12;92.10
6938;BME280;40040;42.706;23.372;2024-02-21T10:28:02;146925.28;;;11.16;94.17
6938;BME280;40040;42.706;23.372;2024-02-21T10:30:29;147010.47;;;11.51;91.40
6938;BME280;40040;42.706;23.372;2024-02-21T10:32:56;147031.44;;;11.60;90.47
6938;BME280;40040;42.706;23.372;2024-02-21T10:35:27;147117.94;;;11.95;88.96
6938;BME280;40040;42.706;23.372;2024-02-21T10:37:57;147168.56;;;12.15;87.44
6938;BME280;40040;42.706;23.372;2024-02-21T10:40:27;147169.81;;;12.16;87.05
6938;BME280;40040;42.706;23.372;2024-02-21T10:42:56;147121.66;;;11.96;87.79
6938;BME280;40040;42.706;23.372;2024-02-21T10:45:29;147199.47;;;12.28;86.65
6938;BME280;40040;42.706;23.372;2024-02-21T10:48:05;147276.06;;;12.59;84.49
6938;BME280;40040;42.706;23.372;2024-02-21T10:50:38;147330.47;;;12.81;83.89
6938;BME280;40040;42.706;23.372;2024-02-21T10:53:20;147360.13;;;12.93;81.66
6938;BME280;40040;42.706;23.372;2024-02-21T10:55:58;147421.94;;;13.18;79.80
6938;BME280;40040;42.706;23.372;2024-02-21T10:58:25;147491.19;;;13.46;76.51
6938;BME280;40040;42.706;23.372;2024-02-21T11:00:56;147652.00;;;14.12;73.71
6938;BME280;40040;42.706;23.372;2024-02-21T11:03:22;147734.91;;;14.45;72.50
6938;BME280;40040;42.706;23.372;2024-02-21T11:05:50;147842.59;;;14.89;72.75
6938;BME280;40040;42.706;23.372;2024-02-21T11:08:20;147926.81;;;15.23;67.91
6938;BME280;40040;42.706;23.372;2024-02-21T11:10:47;148014.75;;;15.59;69.42
6938;BME280;40040;42.706;23.372;2024-02-21T11:13:15;148126.22;;;16.04;63.24
6938;BME280;40040;42.706;23.372;2024-02-21T11:15:43;148091.53;;;15.90;66.29
6938;BME280;40040;42.706;23.372;2024-02-21T11:18:23;147970.19;;;15.41;65.64
6938;BME280;40040;42.706;23.372;2024-02-21T11:20:52;148085.38;;;15.88;66.51
6938;BME280;40040;42.706;23.372;2024-02-21T11:23:25;148138.59;;;16.09;65.88
6938;BME280;40040;42.706;23.372;2024-02-21T11:25:52;148212.97;;;16.39;62.02
6938;BME280;40040;42.706;23.372;2024-02-21T11:28:26;148299.78;;;16.74;61.30
6938;BME280;40040;42.706;23.372;2024-02-21T11:31:06;148369.19;;;17.03;58.04
6938;BME280;40040;42.706;23.372;2024-02-21T11:33:34;148194.41;;;16.32;57.75
6938;BME280;40040;42.706;23.372;2024-02-21T11:36:01;148188.19;;;16.29;57.66
6938;BME280;40040;42.706;23.372;2024-02-21T11:38:29;147998.66;;;15.52;58.58
6938;BME280;40040;42.706;23.372;2024-02-21T11:40:56;148008.56;;;15.56;59.10
6938;BME280;40040;42.706;23.372;2024-02-21T11:43:23;147923.09;;;15.22;62.17
6938;BME280;40040;42.706;23.372;2024-02-21T11:45:58;147939.19;;;15.28;61.84
6938;BME280;40040;42.706;23.372;2024-02-21T11:48:25;147913.16;;;15.18;63.01
6938;BME280;40040;42.706;23.372;2024-02-21T11:50:53;147822.81;;;14.81;63.81
6938;BME280;40040;42.706;23.372;2024-02-21T11:53:21;147758.44;;;14.55;63.98
6938;BME280;40040;42.706;23.372;2024-02-21T11:55:50;147731.22;;;14.44;64.09
6938;BME280;40040;42.706;23.372;2024-02-21T11:58:16;147642.09;;;14.08;64.04
6938;BME280;40040;42.706;23.372;2024-02-21T12:00:52;147575.31;;;13.81;65.76
6938;BME280;40040;42.706;23.372;2024-02-21T12:03:19;147565.41;;;13.77;66.69
6938;BME280;40040;42.706;23.372;2024-02-21T12:05:47;147513.47;;;13.55;66.23
6938;BME280;40040;42.706;23.372;2024-02-21T12:08:15;147518.41;;;13.57;66.78
6938;BME280;40040;42.706;23.372;2024-02-21T12:10:42;147460.28;;;13.34;68.71
6938;BME280;40040;42.706;23.372;2024-02-21T12:13:10;147476.38;;;13.40;68.10
6938;BME280;40040;42.706;23.372;2024-02-21T12:15:38;147451.63;;;13.30;67.78
6938;BME280;40040;42.706;23.372;2024-02-21T12:18:07;147389.84;;;13.05;67.20
6938;BME280;40040;42.706;23.372;2024-02-21T12:20:35;147267.41;;;12.56;68.24
6938;BME280;40040;42.706;23.372;2024-02-21T12:23:03;147315.63;;;12.75;69.31
6938;BME280;40040;42.706;23.372;2024-02-21T12:25:30;147323.03;;;12.78;68.50
6938;BME280;40040;42.706;23.372;2024-02-21T12:27:56;147189.56;;;12.24;69.08
6938;BME280;40040;42.706;23.372;2024-02-21T12:30:25;147194.53;;;12.26;69.28
6938;BME280;40040;42.706;23.372;2024-02-21T12:32:52;147253.81;;;12.50;69.77
6938;BME280;40040;42.706;23.372;2024-02-21T12:35:20;147211.81;;;12.33;69.36
6938;BME280;40040;42.706;23.372;2024-02-21T12:37:47;147136.47;;;12.02;69.75
6938;BME280;40040;42.706;23.372;2024-02-21T12:40:14;147169.81;;;12.16;71.16
6938;BME280;40040;42.706;23.372;2024-02-21T12:42:41;147095.69;;;11.86;70.72
6938;BME280;40040;42.706;23.372;2024-02-21T12:45:08;147135.22;;;12.02;70.68
6938;BME280;40040;42.706;23.372;2024-02-21T12:47:35;147108.06;;;11.91;71.40
6938;BME280;40040;42.706;23.372;2024-02-21T12:50:02;147072.25;;;11.76;74.72
6938;BME280;40040;42.706;23.372;2024-02-21T12:52:33;147069.78;;;11.75;77.17
6938;BME280;40040;42.706;23.372;2024-02-21T12:55:00;147026.50;;;11.58;78.32